Thompsonville, New York
Current Conditions -  °F | °C
As of 7:55 AM on Sunday 21 Dec 2014 (Local Time) from KMSV Reporting Station
Overcast Overcast  
Wind Chill: 27°   Ceiling: 400
Heat Index: 27°   Visibility: 2mi
Dew Point: 25°   Wind: 3mph
Humidity: 93%   Direction: 300°WNW
Pressure: 30.24"   Gusts: NA
Location:  41.67°N, 74.62°W
Report Text: KMSV 211255Z AUTO 30003KT 2SM OVC004 M03/M04 A3024 RMK AO1
Loading
Personal Weather Stations






























Interactive Weather Map New forecast layout! Learn more

10-Day Weather Forecast

Advertisements
Track Severe Weather on mobile